createdAt,value
2018-08-12T00:01:37.646Z,7.56
2018-08-12T00:07:38.405Z,7.48
2018-08-12T00:11:39.176Z,8.5
2018-08-12T00:13:39.852Z,9.43
2018-08-12T00:17:40.595Z,8.36
2018-08-12T00:23:41.407Z,9.12
2018-08-12T00:27:42.189Z,7.29
2018-08-12T00:33:42.908Z,8.16
2018-08-12T00:39:43.718Z,6.16
2018-08-12T00:43:44.477Z,6.66
2018-08-12T00:49:45.219Z,7.92
2018-08-12T00:53:46.070Z,7.49
2018-08-12T00:59:46.820Z,6.31
2018-08-12T01:05:47.734Z,8.36
2018-08-12T01:09:48.439Z,5.9
2018-08-12T01:15:49.159Z,6.94
2018-08-12T01:19:49.934Z,8.39
2018-08-12T01:25:50.665Z,8.35
2018-08-12T01:31:51.528Z,7.06
2018-08-12T01:35:52.274Z,7.47
2018-08-12T01:41:53.037Z,5.83
2018-08-12T01:45:53.764Z,6.62
2018-08-12T01:51:55.187Z,5.67
2018-08-12T01:57:55.921Z,4.79
2018-08-12T02:01:56.702Z,5.03
2018-08-12T02:07:57.577Z,6.68
2018-08-12T02:11:58.372Z,4.72
2018-08-12T02:17:59.229Z,8.06
2018-08-12T02:23:59.951Z,7.75
2018-08-12T02:28:00.718Z,8.52
2018-08-12T02:34:01.612Z,6.12
2018-08-12T02:38:02.410Z,6.81
2018-08-12T02:40:03.069Z,6.95
2018-08-12T02:44:03.816Z,7.61
2018-08-12T02:50:04.686Z,8.84
2018-08-12T02:54:05.437Z,6.56
2018-08-12T03:00:06.166Z,7.64
2018-08-12T03:04:06.883Z,8.95
2018-08-12T03:06:07.522Z,6.57
2018-08-12T03:10:08.310Z,6.1
2018-08-12T03:16:09.143Z,6.09
2018-08-12T03:20:09.857Z,6.85
2018-08-12T03:26:10.712Z,7.35
2018-08-12T03:30:12.151Z,6.84
2018-08-12T03:32:12.532Z,6.9
2018-08-12T03:36:13.395Z,7
2018-08-12T03:42:14.180Z,8.09
2018-08-12T03:46:14.880Z,8.41
2018-08-12T03:52:15.677Z,6.37
2018-08-12T03:56:16.570Z,6.8
2018-08-12T03:58:17.379Z,6.78
2018-08-12T04:02:18.224Z,10.73
2018-08-12T04:08:18.928Z,54.07
2018-08-12T04:12:19.766Z,51.15
2018-08-12T04:18:20.570Z,13.84
2018-08-12T04:22:21.389Z,11.65
2018-08-12T04:24:22.096Z,13.47
2018-08-12T04:28:22.908Z,12.32
2018-08-12T04:34:23.683Z,15.88
2018-08-12T04:38:24.451Z,18.68
2018-08-12T04:44:25.215Z,7.75
2018-08-12T04:48:25.951Z,10.36
2018-08-12T04:50:26.608Z,9.32
2018-08-12T04:54:27.407Z,9.26
2018-08-12T05:00:28.184Z,8.14
2018-08-12T05:04:28.875Z,6.23
2018-08-12T05:10:29.653Z,7.95
2018-08-12T05:14:30.456Z,8.57
2018-08-12T05:16:31.121Z,8.07
2018-08-12T05:20:31.860Z,7.4
2018-08-12T05:26:32.662Z,6.76
2018-08-12T05:30:33.478Z,5.81
2018-08-12T05:36:34.203Z,7.63
2018-08-12T05:42:35.002Z,8.04
2018-08-12T05:46:35.807Z,6.21
2018-08-12T05:52:36.611Z,7.87
2018-08-12T05:56:37.391Z,9.04
2018-08-12T06:02:38.167Z,6.39
2018-08-12T06:08:38.939Z,6.08
2018-08-12T06:12:39.922Z,6.58
2018-08-12T06:18:40.663Z,7.32
2018-08-12T06:22:41.372Z,6.07
2018-08-12T06:28:42.246Z,7.65
2018-08-12T06:34:42.970Z,7.9
2018-08-12T06:38:43.663Z,6.63
2018-08-12T06:44:44.543Z,7.28
2018-08-12T06:48:45.247Z,8.46
2018-08-12T06:54:46.104Z,7
2018-08-12T07:00:46.852Z,6.95
2018-08-12T07:04:47.510Z,8.42
2018-08-12T07:10:48.403Z,8.06
2018-08-12T07:14:49.071Z,7
2018-08-12T07:20:49.900Z,7.6
2018-08-12T07:26:50.645Z,7.14
2018-08-12T07:30:51.428Z,6.88
2018-08-12T07:36:52.269Z,7.34
2018-08-12T07:40:53.040Z,7.22
2018-08-12T07:42:53.773Z,7.69
2018-08-12T07:46:54.546Z,6.83
2018-08-12T07:52:55.347Z,6.77
2018-08-12T07:56:56.158Z,6.02
2018-08-12T08:02:56.926Z,6.85
2018-08-12T08:06:57.659Z,5.98
2018-08-12T08:08:58.494Z,6.36
2018-08-12T08:12:59.256Z,7.17
2018-08-12T08:19:00.190Z,6.59
2018-08-12T08:23:00.858Z,5.38
2018-08-12T08:29:01.741Z,6.83
2018-08-12T08:33:02.480Z,6.33
2018-08-12T08:35:03.180Z,5.31
2018-08-12T08:39:03.885Z,5.84
2018-08-12T08:45:04.686Z,6.7
2018-08-12T08:49:05.456Z,4.89
2018-08-12T08:55:06.184Z,5.34
2018-08-12T08:59:06.937Z,5.88
2018-08-12T09:01:07.916Z,5.5
2018-08-12T09:05:08.698Z,4.15
2018-08-12T09:11:09.510Z,4.69
2018-08-12T09:15:10.296Z,5.33
2018-08-12T09:21:11.073Z,4.55
2018-08-12T09:25:11.805Z,5.92
2018-08-12T09:27:12.588Z,5.74
2018-08-12T09:31:13.294Z,7.28
2018-08-12T09:37:13.989Z,5.15
2018-08-12T09:41:14.838Z,4.88
2018-08-12T09:47:15.653Z,5.18
2018-08-12T09:51:16.528Z,5.15
2018-08-12T09:53:17.173Z,5.6
2018-08-12T09:57:17.908Z,5.54
2018-08-12T10:03:18.653Z,5.95
2018-08-12T10:07:19.359Z,4.31
2018-08-12T10:13:20.035Z,5.82
2018-08-12T10:19:21.868Z,6.59
2018-08-12T10:23:22.545Z,5.64
2018-08-12T10:29:23.423Z,6.9
2018-08-12T10:33:23.953Z,5.44
2018-08-12T10:39:24.683Z,4.88
2018-08-12T10:45:25.767Z,6.91
2018-08-12T10:49:26.459Z,8.14
2018-08-12T10:55:27.184Z,3.96
2018-08-12T10:59:28.049Z,4.5
2018-08-12T11:05:28.639Z,4.22
2018-08-12T11:11:29.418Z,4.78
2018-08-12T11:15:30.895Z,5.15
2018-08-12T11:21:31.748Z,4.69
2018-08-12T11:25:32.529Z,5.61
2018-08-12T11:31:33.245Z,3.43
2018-08-12T11:37:33.993Z,5.29
2018-08-12T11:41:34.772Z,5.01
2018-08-12T11:47:35.826Z,4.08
2018-08-12T11:51:36.398Z,4.35
2018-08-12T11:53:37.176Z,4.44
2018-08-12T11:57:37.826Z,4.18
2018-08-12T12:03:38.803Z,4.87
2018-08-12T12:07:39.560Z,5.69
2018-08-12T12:13:40.319Z,4.67
2018-08-12T12:17:40.987Z,3.95
2018-08-12T12:19:41.706Z,4.39
2018-08-12T12:23:42.503Z,4.64
2018-08-12T12:29:43.232Z,4.63
2018-08-12T12:33:44.079Z,3.8
2018-08-12T12:39:44.855Z,5.45
2018-08-12T12:43:45.646Z,4.42
2018-08-12T12:45:46.371Z,4.04
2018-08-12T12:49:47.068Z,4.01
2018-08-12T12:55:47.807Z,5.22
2018-08-12T12:59:48.546Z,6.31
2018-08-12T13:05:49.193Z,5.51
2018-08-12T13:09:50.063Z,4.61
2018-08-12T13:11:50.792Z,6.46
2018-08-12T13:15:51.806Z,6.53
2018-08-12T13:21:52.513Z,5.92
2018-08-12T13:25:53.554Z,7.79
2018-08-12T13:31:55.428Z,5.71
2018-08-12T13:35:56.204Z,5.73
2018-08-12T13:37:56.926Z,5.83
2018-08-12T13:41:57.677Z,5.45
2018-08-12T13:47:58.389Z,5.34
2018-08-12T13:51:59.161Z,4.87
2018-08-12T13:57:59.952Z,5.13
2018-08-12T14:04:00.741Z,5.03
2018-08-12T14:08:01.494Z,5.88
2018-08-12T14:14:02.295Z,5.53
2018-08-12T14:18:03.007Z,4.05
2018-08-12T14:24:03.812Z,5.54
2018-08-12T14:30:04.600Z,6.04
2018-08-12T14:34:05.341Z,5.63
2018-08-12T14:40:06.081Z,4.96
2018-08-12T14:44:06.860Z,4.79
2018-08-12T14:50:07.504Z,5.34
2018-08-12T14:56:08.300Z,4.89
2018-08-12T15:00:09.279Z,4.96
2018-08-12T15:06:10.053Z,5.84
2018-08-12T15:10:10.773Z,5.4
2018-08-12T15:12:11.571Z,5.9
2018-08-12T15:16:12.301Z,4.92
2018-08-12T15:22:13.054Z,5.17
2018-08-12T15:26:13.742Z,4.84
2018-08-12T15:32:14.613Z,5.65
2018-08-12T15:36:15.281Z,5.2
2018-08-12T15:38:15.985Z,5.61
2018-08-12T15:42:16.732Z,4.89
2018-08-12T15:48:17.456Z,5.86
2018-08-12T15:52:18.221Z,5.94
2018-08-12T15:58:18.877Z,5.91
2018-08-12T16:02:19.610Z,5.5
2018-08-12T16:04:20.336Z,5.72
2018-08-12T16:08:21.139Z,5.61
2018-08-12T16:14:21.947Z,6.47
2018-08-12T16:18:22.641Z,5.31
2018-08-12T16:24:23.405Z,5.73
2018-08-12T16:28:24.310Z,5.67
2018-08-12T16:30:25.390Z,5.59
2018-08-12T16:34:26.244Z,5.23
2018-08-12T16:40:27.151Z,6.86
2018-08-12T16:44:27.865Z,6.34
2018-08-12T16:50:28.629Z,6.33
2018-08-12T16:56:29.400Z,7.89
2018-08-12T17:00:30.865Z,6.81
2018-08-12T17:06:31.579Z,6.97
2018-08-12T17:10:32.254Z,7.11
2018-08-12T17:16:33.059Z,6.31
2018-08-12T17:22:33.795Z,6.84
2018-08-12T17:26:34.562Z,6.03
2018-08-12T17:32:35.394Z,7.33
2018-08-12T17:36:36.159Z,8.89
2018-08-12T17:42:36.788Z,6.85
2018-08-12T17:48:37.510Z,7.13
2018-08-12T17:52:38.236Z,6.57
2018-08-12T17:58:39.148Z,7.49
2018-08-12T18:02:39.833Z,6.9
2018-08-12T18:04:40.573Z,7.15
2018-08-12T18:08:41.351Z,6.94
2018-08-12T18:14:42.060Z,6.99
2018-08-12T18:18:42.752Z,6.8
2018-08-12T18:24:43.533Z,6.18
2018-08-12T18:28:44.332Z,6.14
2018-08-12T18:30:45.194Z,6.56
2018-08-12T18:34:46.000Z,8.16
2018-08-12T18:40:46.677Z,6.11
2018-08-12T18:44:47.512Z,6.21
2018-08-12T18:50:48.297Z,6.26
2018-08-12T18:54:49.036Z,7.58
2018-08-12T18:56:49.749Z,7.21
2018-08-12T19:00:50.572Z,6.45
2018-08-12T19:06:51.219Z,7.48
2018-08-12T19:10:52.062Z,7.88
2018-08-12T19:16:52.964Z,6.07
2018-08-12T19:20:53.689Z,6.76
2018-08-12T19:22:54.403Z,6.7
2018-08-12T19:26:55.168Z,7.36
2018-08-12T19:32:55.943Z,7.95
2018-08-12T19:36:56.698Z,6.71
2018-08-12T19:42:57.602Z,7.09
2018-08-12T19:48:58.387Z,6.77
2018-08-12T19:52:59.125Z,6.77
2018-08-12T19:58:59.981Z,7.1
2018-08-12T20:03:00.696Z,7.52
2018-08-12T20:09:01.575Z,9.37
2018-08-12T20:15:02.361Z,7.79
2018-08-12T20:19:03.203Z,6.58
2018-08-12T20:25:03.984Z,6.21
2018-08-12T20:29:04.754Z,6.33
2018-08-12T20:35:05.589Z,5.8
2018-08-12T20:41:06.387Z,8.15
2018-08-12T20:45:07.561Z,7.46
2018-08-12T20:51:08.333Z,7.96
2018-08-12T20:55:09.181Z,7.75
2018-08-12T21:01:09.923Z,6.96
2018-08-12T21:07:10.644Z,7.06
2018-08-12T21:11:11.442Z,7.35
2018-08-12T21:17:12.247Z,8.39
2018-08-12T21:21:13.133Z,6.86
2018-08-12T21:23:13.881Z,7.3
2018-08-12T21:27:14.569Z,7.09
2018-08-12T21:33:15.443Z,8.2
2018-08-12T21:37:16.148Z,6.68
2018-08-12T21:43:16.968Z,7.96
2018-08-12T21:47:17.797Z,7.05
2018-08-12T21:49:18.579Z,7.31
2018-08-12T21:53:19.321Z,7.31
2018-08-12T21:59:20.007Z,6.56
2018-08-12T22:03:20.777Z,6.85
2018-08-12T22:09:21.569Z,7.97
2018-08-12T22:13:22.330Z,7.74
2018-08-12T22:15:23.261Z,7.44
2018-08-12T22:19:23.932Z,7.81
2018-08-12T22:25:24.740Z,7.08
2018-08-12T22:29:25.585Z,7.75
2018-08-12T22:35:26.281Z,6.37
2018-08-12T22:39:27.101Z,6.83
2018-08-12T22:41:27.851Z,7.44
2018-08-12T22:45:29.148Z,6.26
2018-08-12T22:51:29.970Z,6.53
2018-08-12T22:55:30.665Z,6.05
2018-08-12T23:01:31.475Z,7.54
2018-08-12T23:05:32.342Z,5.58
2018-08-12T23:07:33.993Z,7.18
2018-08-12T23:11:34.822Z,6.84
2018-08-12T23:17:35.644Z,6.82
2018-08-12T23:21:36.314Z,7.01
2018-08-12T23:27:37.083Z,7.86
2018-08-12T23:31:37.818Z,7.08
2018-08-12T23:33:38.471Z,7.14
2018-08-12T23:37:39.197Z,6.9
2018-08-12T23:43:39.958Z,7.18
2018-08-12T23:47:40.705Z,7.41
2018-08-12T23:53:41.452Z,8.2
2018-08-12T23:59:42.252Z,8.25
